Time;durP1;ratioP1;P1;durP2;ratioP2;P2;SDS_P1;SDS_P2;PMS_P1;PMS_P2;Temp;Humidity;BMP_temperature;BMP_pressure;BME280_temperature;BME280_humidity;BME280_pressure;Samples;Min_cycle;Max_cycle;Signal;HPM_P1;HPM_P2
2022/10/07 00:00:50;;;;;;;7.45;4.15;;;;;;;13.92;74.49;99471.34;7387596;19;20014;-71
2022/10/07 00:03:18;;;;;;;8.30;4.53;;;;;;;13.96;74.49;99464.75;7383228;19;20025;-71
2022/10/07 00:05:45;;;;;;;11.07;5.15;;;;;;;13.98;74.45;99469.91;7385555;19;20355;-71
2022/10/07 00:08:12;;;;;;;14.10;4.55;;;;;;;13.92;74.45;99465.19;7388349;19;20042;-71
2022/10/07 00:10:40;;;;;;;7.85;3.95;;;;;;;13.95;74.34;99459.56;7384992;19;20021;-71
2022/10/07 00:13:10;;;;;;;6.85;4.60;;;;;;;13.95;74.24;99460.41;7387353;19;20490;-71
2022/10/07 00:15:38;;;;;;;15.60;5.18;;;;;;;13.93;74.08;99459.75;7386077;19;20018;-71
2022/10/07 00:18:05;;;;;;;8.98;4.53;;;;;;;13.96;74.29;99454.09;7386093;19;20011;-71
2022/10/07 00:20:38;;;;;;;10.88;4.82;;;;;;;13.98;74.13;99457.47;7385327;19;20026;-71
2022/10/07 00:23:06;;;;;;;7.75;4.10;;;;;;;13.95;74.11;99454.25;7388410;19;20022;-71
2022/10/07 00:25:37;;;;;;;7.65;4.63;;;;;;;13.99;74.19;99450.31;7385864;19;20015;-71
2022/10/07 00:28:04;;;;;;;5.65;3.78;;;;;;;14.02;74.07;99445.50;7384752;19;20015;-71
2022/10/07 00:30:31;;;;;;;8.60;4.45;;;;;;;14.04;73.99;99446.19;7384521;19;20489;-71
2022/10/07 00:32:58;;;;;;;9.10;3.90;;;;;;;14.07;73.97;99446.91;7387045;19;20094;-71
2022/10/07 00:35:25;;;;;;;7.57;4.03;;;;;;;14.03;73.92;99446.34;7385228;19;20010;-71
2022/10/07 00:37:52;;;;;;;9.75;4.38;;;;;;;14.05;73.88;99442.53;7382619;19;20018;-71
2022/10/07 00:40:19;;;;;;;7.70;3.75;;;;;;;14.02;73.69;99437.53;7386929;19;20029;-71
2022/10/07 00:42:46;;;;;;;9.88;3.70;;;;;;;14.03;73.59;99431.25;7381190;19;20014;-71
2022/10/07 00:45:16;;;;;;;5.20;3.50;;;;;;;14.08;73.49;99421.94;7385601;19;20019;-71
2022/10/07 00:47:47;;;;;;;10.00;3.72;;;;;;;14.08;73.00;99427.28;7385410;19;20480;-71
2022/10/07 00:50:20;;;;;;;7.47;3.92;;;;;;;14.12;73.10;99412.69;7385615;19;20052;-71
2022/10/07 00:52:50;;;;;;;8.98;3.58;;;;;;;14.17;72.98;99421.03;7383010;19;20037;-71
2022/10/07 00:55:20;;;;;;;8.18;3.58;;;;;;;14.13;72.59;99414.34;7385301;19;20014;-71
2022/10/07 00:57:47;;;;;;;13.07;4.95;;;;;;;14.15;72.60;99417.69;7383068;19;20011;-71
2022/10/07 01:00:14;;;;;;;7.45;4.85;;;;;;;14.15;72.59;99404.38;7383566;19;20022;-71
2022/10/07 01:02:41;;;;;;;8.48;4.32;;;;;;;14.21;72.60;99409.09;7385004;19;20021;-71
2022/10/07 01:05:09;;;;;;;6.72;3.20;;;;;;;14.22;72.48;99408.94;7385597;19;20078;-71
2022/10/07 01:07:37;;;;;;;4.57;3.85;;;;;;;14.20;72.26;99404.75;7383022;19;20055;-71
2022/10/07 01:10:04;;;;;;;7.05;4.05;;;;;;;14.20;72.52;99410.09;7381401;19;20022;-71
2022/10/07 01:12:40;;;;;;;11.65;5.70;;;;;;;14.16;72.26;99400.72;7383855;19;20517;-71
2022/10/07 01:15:33;;;;;;;6.90;3.30;;;;;;;14.07;72.07;99405.16;7382208;19;20070;-71
2022/10/07 01:18:30;;;;;;;6.22;3.97;;;;;;;14.01;72.64;99400.44;7381059;19;20097;-71
2022/10/07 01:21:10;;;;;;;10.35;4.18;;;;;;;13.94;72.81;99394.88;7384932;19;20030;-71
2022/10/07 01:23:55;;;;;;;10.18;4.78;;;;;;;13.97;73.05;99399.91;7384228;19;20960;-71
2022/10/07 01:26:32;;;;;;;6.53;4.00;;;;;;;13.96;73.19;99387.59;7382194;19;20030;-71
2022/10/07 01:29:07;;;;;;;9.15;4.25;;;;;;;13.93;73.40;99390.56;7382126;19;20812;-71
2022/10/07 01:31:37;;;;;;;8.35;4.05;;;;;;;13.89;73.85;99391.00;7383882;19;20492;-71
2022/10/07 01:34:06;;;;;;;9.15;4.25;;;;;;;13.92;74.06;99391.53;7381777;19;20018;-71
2022/10/07 01:36:35;;;;;;;12.18;4.78;;;;;;;13.93;73.95;99379.94;7382596;19;20030;-71
2022/10/07 01:39:08;;;;;;;11.63;4.85;;;;;;;13.91;73.77;99384.56;7385010;19;20046;-71
2022/10/07 01:41:35;;;;;;;9.20;5.00;;;;;;;13.93;73.57;99377.28;7380735;19;20022;-71
2022/10/07 01:44:02;;;;;;;12.30;4.28;;;;;;;13.88;73.51;99371.56;7381111;19;20023;-71
2022/10/07 01:46:30;;;;;;;9.10;4.28;;;;;;;13.83;73.56;99366.69;7385316;19;20034;-71
2022/10/07 01:48:59;;;;;;;8.98;4.70;;;;;;;13.89;73.31;99369.75;7383178;19;20696;-71
2022/10/07 01:51:28;;;;;;;8.32;4.47;;;;;;;13.90;73.60;99366.06;7378140;19;20039;-71
2022/10/07 01:54:04;;;;;;;8.20;5.28;;;;;;;13.92;73.34;99354.28;7380975;19;20382;-71
2022/10/07 01:56:57;;;;;;;12.50;5.18;;;;;;;13.94;72.91;99354.97;7383141;19;20022;-71
2022/10/07 01:59:57;;;;;;;7.90;3.80;;;;;;;13.98;73.15;99353.69;7379819;19;20022;-71
2022/10/07 02:02:27;;;;;;;7.35;3.83;;;;;;;13.97;72.97;99353.84;7382893;19;20022;-71
2022/10/07 02:05:09;;;;;;;10.18;4.45;;;;;;;13.99;73.14;99355.34;7384046;19;20026;-71
2022/10/07 02:08:03;;;;;;;7.10;4.30;;;;;;;14.01;73.15;99348.06;7380439;19;20112;-71
2022/10/07 02:10:49;;;;;;;12.38;4.45;;;;;;;13.94;73.25;99346.16;7382753;19;20026;-71
2022/10/07 02:13:34;;;;;;;5.93;3.53;;;;;;;13.95;73.35;99346.00;7383603;19;20022;-71
2022/10/07 02:16:32;;;;;;;9.18;4.15;;;;;;;13.98;73.38;99343.06;7383040;19;20743;-71
2022/10/07 02:19:02;;;;;;;12.00;4.15;;;;;;;13.99;73.18;99339.41;7387006;19;20817;-71
2022/10/07 02:21:31;;;;;;;7.40;4.28;;;;;;;14.02;72.96;99333.75;7389943;19;20018;-71
2022/10/07 02:23:59;;;;;;;9.43;4.88;;;;;;;13.96;73.14;99329.06;7389164;19;20035;-71
2022/10/07 02:26:27;;;;;;;12.65;5.13;;;;;;;13.90;73.11;99340.34;7388966;19;20019;-71
2022/10/07 02:28:55;;;;;;;9.38;4.93;;;;;;;13.96;73.29;99333.56;7388790;19;20010;-71
2022/10/07 02:31:29;;;;;;;9.18;3.83;;;;;;;14.02;73.46;99322.28;7388948;19;20374;-71
2022/10/07 02:33:58;;;;;;;10.63;3.88;;;;;;;14.05;73.29;99317.50;7387088;19;20018;-71
2022/10/07 02:36:29;;;;;;;11.25;3.38;;;;;;;14.08;73.32;99319.00;7388572;19;20021;-71
2022/10/07 02:38:57;;;;;;;9.70;3.70;;;;;;;14.05;73.21;99317.50;7388477;19;20089;-71
2022/10/07 02:41:49;;;;;;;7.00;3.47;;;;;;;14.07;73.25;99319.19;7385962;19;20038;-71
2022/10/07 02:44:27;;;;;;;9.75;2.65;;;;;;;14.07;73.40;99312.03;7388807;19;22442;-71
2022/10/07 02:47:09;;;;;;;5.63;3.13;;;;;;;14.08;73.52;99310.19;7390357;19;20405;-71
2022/10/07 02:49:38;;;;;;;12.20;4.15;;;;;;;14.13;73.42;99313.22;7386491;19;20611;-71
2022/10/07 02:52:08;;;;;;;9.65;3.45;;;;;;;14.15;73.45;99305.94;7389064;19;20425;-71
2022/10/07 02:54:47;;;;;;;6.22;3.40;;;;;;;14.12;73.79;99306.25;7388330;19;20049;-71
2022/10/07 02:57:16;;;;;;;10.05;3.70;;;;;;;14.14;73.82;99299.78;7384518;19;20014;-71
2022/10/07 02:59:46;;;;;;;5.13;2.95;;;;;;;14.12;73.60;99295.59;7387318;19;20752;-71
2022/10/07 03:02:19;;;;;;;5.22;3.30;;;;;;;14.13;73.68;99298.09;7389331;19;20553;-71
2022/10/07 03:04:47;;;;;;;10.18;3.83;;;;;;;14.04;73.73;99299.88;7388201;19;20015;-71
2022/10/07 03:07:14;;;;;;;9.70;4.05;;;;;;;14.01;74.00;99296.69;7384415;19;20007;-71
2022/10/07 03:09:41;;;;;;;8.25;3.55;;;;;;;14.05;73.84;99290.88;7386460;19;20496;-71
2022/10/07 03:12:10;;;;;;;8.57;3.65;;;;;;;14.02;73.90;99296.50;7386169;19;20021;-71
2022/10/07 03:14:38;;;;;;;7.57;3.35;;;;;;;13.98;73.83;99284.53;7388767;19;20516;-71
2022/10/07 03:17:06;;;;;;;6.03;3.65;;;;;;;14.03;73.92;99284.91;7387405;19;20024;-71
2022/10/07 03:19:33;;;;;;;13.50;4.18;;;;;;;14.03;73.97;99287.56;7387418;19;20039;-71
2022/10/07 03:22:01;;;;;;;10.90;3.85;;;;;;;14.04;73.92;99285.72;7385299;19;20017;-71
2022/10/07 03:24:30;;;;;;;8.88;3.20;;;;;;;14.08;73.83;99288.91;7386943;19;20535;-71
2022/10/07 03:26:57;;;;;;;12.15;4.10;;;;;;;14.10;73.66;99286.94;7387136;19;20021;-71
2022/10/07 03:29:25;;;;;;;6.82;4.53;;;;;;;14.12;73.78;99274.31;7384794;19;20015;-71
2022/10/07 03:31:54;;;;;;;7.22;3.30;;;;;;;14.03;73.48;99284.03;7380154;19;20021;-71
2022/10/07 03:34:22;;;;;;;9.60;3.60;;;;;;;13.93;73.32;99278.84;7384187;19;20015;-71
2022/10/07 03:36:49;;;;;;;9.75;4.47;;;;;;;13.95;73.15;99278.66;7386300;19;20053;-71
2022/10/07 03:39:15;;;;;;;6.40;3.15;;;;;;;13.94;73.23;99272.50;7387106;19;20042;-71
2022/10/07 03:41:42;;;;;;;9.65;4.15;;;;;;;13.94;73.22;99264.53;7379806;19;20011;-71
2022/10/07 03:44:09;;;;;;;8.57;3.30;;;;;;;13.97;72.93;99276.69;7384196;19;20018;-72
2022/10/07 03:46:36;;;;;;;10.27;3.38;;;;;;;13.98;72.92;99271.22;7384480;19;20014;-71
2022/10/07 03:49:03;;;;;;;13.38;3.97;;;;;;;13.99;73.15;99270.22;7384612;19;20085;-71
2022/10/07 03:51:30;;;;;;;7.90;3.33;;;;;;;14.00;73.14;99265.72;7384978;19;20043;-71
2022/10/07 03:53:58;;;;;;;14.25;4.38;;;;;;;14.01;73.01;99262.94;7386778;19;20018;-72
2022/10/07 03:56:29;;;;;;;9.20;4.20;;;;;;;14.03;73.05;99265.41;7382412;19;20026;-71
2022/10/07 03:58:56;;;;;;;8.23;4.07;;;;;;;14.00;73.23;99258.59;7382664;19;20020;-71
2022/10/07 04:01:23;;;;;;;12.93;4.22;;;;;;;14.03;73.39;99263.63;7385658;19;20018;-71
2022/10/07 04:03:54;;;;;;;11.52;3.95;;;;;;;14.02;73.72;99258.44;7383199;19;20413;-71
2022/10/07 04:06:23;;;;;;;7.90;4.50;;;;;;;14.04;73.88;99256.47;7382686;19;20026;-72
2022/10/07 04:08:54;;;;;;;10.63;3.88;;;;;;;14.06;73.98;99249.16;7384197;19;20019;-71
2022/10/07 04:11:23;;;;;;;10.77;4.70;;;;;;;14.07;74.01;99250.00;7382011;19;20023;-71
2022/10/07 04:13:54;;;;;;;10.85;4.68;;;;;;;14.14;74.14;99256.34;7384259;19;20025;-72
2022/10/07 04:16:23;;;;;;;8.70;4.20;;;;;;;14.13;73.79;99246.69;7381322;19;20025;-71
2022/10/07 04:18:54;;;;;;;9.15;4.60;;;;;;;14.14;73.80;99243.03;7385857;19;20022;-72
2022/10/07 04:21:21;;;;;;;7.72;4.22;;;;;;;14.14;73.86;99241.22;7382050;19;20040;-71
2022/10/07 04:23:48;;;;;;;8.82;4.03;;;;;;;14.16;73.91;99243.72;7386263;19;20014;-71
2022/10/07 04:26:15;;;;;;;11.20;4.63;;;;;;;14.16;73.88;99243.72;7384376;19;20026;-71
2022/10/07 04:28:47;;;;;;;11.85;5.18;;;;;;;14.13;73.80;99236.88;7383746;19;20046;-71
2022/10/07 04:31:17;;;;;;;11.07;5.50;;;;;;;14.13;73.86;99236.88;7382605;19;20086;-71
2022/10/07 04:33:48;;;;;;;13.27;5.60;;;;;;;14.10;73.80;99239.03;7385389;19;20031;-71
2022/10/07 04:36:21;;;;;;;6.65;4.57;;;;;;;14.00;74.01;99239.97;7381081;19;20429;-71
2022/10/07 04:38:54;;;;;;;8.63;4.68;;;;;;;13.96;74.33;99235.97;7382581;19;20014;-71
2022/10/07 04:41:25;;;;;;;10.57;4.78;;;;;;;14.02;74.21;99222.03;7379046;19;20018;-71
2022/10/07 04:43:52;;;;;;;12.30;4.10;;;;;;;14.08;74.32;99231.19;7383143;19;20596;-72
2022/10/07 04:46:27;;;;;;;6.28;4.28;;;;;;;14.11;74.35;99232.72;7382315;19;20377;-72
2022/10/07 04:48:59;;;;;;;6.72;4.28;;;;;;;14.13;74.18;99228.06;7384682;19;20061;-72
2022/10/07 04:51:28;;;;;;;15.00;5.07;;;;;;;14.11;74.37;99225.56;7386393;19;20011;-72
2022/10/07 04:53:57;;;;;;;8.00;4.30;;;;;;;14.13;74.29;99220.91;7384462;19;20038;-72
2022/10/07 04:56:30;;;;;;;7.57;4.60;;;;;;;14.17;74.30;99213.47;7381792;19;20647;-71
2022/10/07 04:58:59;;;;;;;15.38;4.45;;;;;;;14.11;74.13;99214.91;7383496;19;20358;-72
2022/10/07 05:01:26;;;;;;;9.95;4.50;;;;;;;14.14;74.17;99224.41;7381658;19;20029;-72
2022/10/07 05:03:53;;;;;;;12.85;4.40;;;;;;;14.15;74.03;99215.44;7381203;19;20113;-72
2022/10/07 05:06:20;;;;;;;10.02;4.68;;;;;;;14.17;74.25;99219.63;7383174;19;20715;-72
2022/10/07 05:08:47;;;;;;;8.25;4.00;;;;;;;14.18;74.04;99210.63;7383005;19;20035;-72
2022/10/07 05:11:14;;;;;;;6.88;4.70;;;;;;;14.18;73.88;99209.81;7376226;19;20014;-73
2022/10/07 05:13:51;;;;;;;8.10;4.32;;;;;;;14.15;74.04;99208.28;7386335;19;20010;-73
2022/10/07 05:16:19;;;;;;;7.47;5.43;;;;;;;14.16;73.79;99203.81;7383707;19;20021;-72
2022/10/07 05:18:46;;;;;;;8.70;5.15;;;;;;;14.12;73.98;99210.44;7385533;19;20011;-72
2022/10/07 05:21:13;;;;;;;10.85;4.97;;;;;;;14.16;73.85;99203.81;7380532;19;20015;-72
2022/10/07 05:23:43;;;;;;;9.15;5.63;;;;;;;14.20;73.94;99208.66;7381730;19;20022;-72
2022/10/07 05:26:14;;;;;;;12.02;5.13;;;;;;;14.18;73.94;99207.16;7384269;19;20019;-72
2022/10/07 05:28:48;;;;;;;10.90;5.88;;;;;;;14.19;73.93;99207.00;7380913;19;20022;-72
2022/10/07 05:31:19;;;;;;;12.15;6.13;;;;;;;14.16;73.86;99207.28;7383167;19;20022;-72
2022/10/07 05:33:51;;;;;;;10.20;5.68;;;;;;;14.18;74.13;99207.16;7382001;19;20019;-72
2022/10/07 05:36:20;;;;;;;12.68;5.03;;;;;;;14.20;74.27;99205.16;7381365;19;20018;-72
2022/10/07 05:38:48;;;;;;;14.48;5.40;;;;;;;14.26;74.15;99212.50;7383533;19;20018;-72
2022/10/07 05:41:16;;;;;;;9.43;4.43;;;;;;;14.32;74.29;99206.53;7378663;19;20026;-72
2022/10/07 05:43:45;;;;;;;8.30;4.70;;;;;;;14.36;74.20;99201.75;7382564;19;20020;-73
2022/10/07 05:46:19;;;;;;;12.18;5.30;;;;;;;14.41;74.00;99207.44;7385605;19;20010;-73
2022/10/07 05:48:51;;;;;;;17.42;5.82;;;;;;;14.42;73.69;99207.25;7384150;19;20011;-73
2022/10/07 05:51:23;;;;;;;14.15;5.55;;;;;;;14.43;73.47;99200.13;7383301;19;20018;-73
2022/10/07 05:53:54;;;;;;;7.53;4.85;;;;;;;14.40;73.28;99201.28;7389673;19;20014;-73
2022/10/07 05:56:23;;;;;;;9.77;5.13;;;;;;;14.40;73.17;99201.28;7389754;19;20043;-73
2022/10/07 05:58:52;;;;;;;8.50;4.80;;;;;;;14.43;73.43;99203.63;7391698;19;20015;-73
2022/10/07 06:01:20;;;;;;;11.02;4.55;;;;;;;14.49;73.54;99194.16;7388301;19;20031;-73
2022/10/07 06:03:53;;;;;;;8.65;4.63;;;;;;;14.55;73.43;99192.69;7391694;19;20046;-73
2022/10/07 06:06:22;;;;;;;10.75;4.00;;;;;;;14.61;73.54;99192.91;7391568;19;20042;-73
2022/10/07 06:08:51;;;;;;;5.70;3.85;;;;;;;14.67;73.56;99191.41;7390924;19;20018;-73
2022/10/07 06:14:06;;;;;;;8.65;4.88;;;;;;;14.82;73.90;99189.78;7389329;19;20025;-73
2022/10/07 06:16:33;;;;;;;9.63;4.45;;;;;;;14.89;73.88;99189.97;7389686;19;20910;-73
2022/10/07 06:19:00;;;;;;;7.47;5.03;;;;;;;14.94;73.77;99187.66;7388636;19;20027;-73
2022/10/07 06:21:29;;;;;;;7.50;4.97;;;;;;;15.00;73.64;99189.66;7389861;19;20369;-73
2022/10/07 06:24:00;;;;;;;8.68;5.18;;;;;;;15.06;73.57;99186.34;7391988;19;20043;-73
2022/10/07 06:26:32;;;;;;;10.55;5.63;;;;;;;15.07;73.62;99189.84;7389979;19;20019;-73
2022/10/07 06:29:00;;;;;;;9.05;5.47;;;;;;;15.05;73.87;99183.81;7389745;19;20086;-73
2022/10/07 06:31:27;;;;;;;10.27;5.28;;;;;;;15.12;73.80;99190.19;7390471;19;20465;-73
2022/10/07 06:33:59;;;;;;;10.27;4.97;;;;;;;15.23;73.70;99184.50;7391637;19;20010;-73
2022/10/07 06:36:26;;;;;;;12.90;4.80;;;;;;;15.34;73.32;99184.19;7388775;19;20568;-73
2022/10/07 06:38:55;;;;;;;11.32;5.43;;;;;;;15.49;72.97;99188.84;7390787;19;20111;-73
2022/10/07 06:41:28;;;;;;;7.57;5.05;;;;;;;15.50;73.07;99193.19;7389026;19;20018;-73
2022/10/07 06:44:18;;;;;;;11.13;5.28;;;;;;;15.55;73.08;99190.84;7390525;19;20139;-73
2022/10/07 06:46:44;;;;;;;14.88;5.70;;;;;;;15.61;73.11;99194.69;7390903;19;20378;-73
2022/10/07 06:49:11;;;;;;;8.68;4.70;;;;;;;15.67;72.93;99186.84;7389194;19;20014;-73
2022/10/07 06:51:38;;;;;;;10.50;5.60;;;;;;;15.67;72.80;99186.03;7389409;19;20039;-73
2022/10/07 06:54:04;;;;;;;11.38;4.75;;;;;;;15.75;72.66;99186.88;7390992;19;20010;-73
2022/10/07 06:56:31;;;;;;;10.45;4.90;;;;;;;15.80;72.62;99186.38;7390044;19;20018;-74
2022/10/07 06:58:58;;;;;;;15.85;5.85;;;;;;;15.85;72.50;99181.34;7389928;19;20090;-73
2022/10/07 07:01:32;;;;;;;8.40;4.93;;;;;;;15.86;72.25;99185.69;7387449;19;20022;-73
2022/10/07 07:03:59;;;;;;;9.60;4.60;;;;;;;15.92;72.34;99193.00;7389045;19;20015;-73
2022/10/07 07:06:26;;;;;;;13.65;5.22;;;;;;;15.89;72.28;99189.84;7389584;19;20014;-73
2022/10/07 07:08:54;;;;;;;11.75;4.80;;;;;;;15.88;72.62;99194.34;7387980;19;20042;-73
2022/10/07 07:11:36;;;;;;;9.95;5.32;;;;;;;16.01;72.67;99194.66;7388029;19;20019;-73
2022/10/07 07:14:11;;;;;;;6.78;3.83;;;;;;;16.22;72.30;99204.78;7390844;19;20015;-73
2022/10/07 07:16:41;;;;;;;8.68;4.35;;;;;;;16.28;71.84;99199.75;7388613;19;20018;-73
2022/10/07 07:19:10;;;;;;;9.02;4.50;;;;;;;16.39;72.00;99202.88;7386398;19;20049;-73
2022/10/07 07:21:39;;;;;;;14.20;4.53;;;;;;;16.44;71.81;99195.19;7388917;19;20030;-73
2022/10/07 07:24:09;;;;;;;13.73;4.97;;;;;;;16.38;71.62;99197.72;7389697;19;20010;-72
2022/10/07 07:26:38;;;;;;;11.45;4.32;;;;;;;16.46;71.79;99192.34;7386627;19;20018;-73
2022/10/07 07:29:07;;;;;;;8.57;4.45;;;;;;;16.41;71.90;99184.84;7390207;19;20044;-72
2022/10/07 07:31:42;;;;;;;9.77;4.40;;;;;;;16.41;71.82;99192.03;7387600;19;20470;-72
2022/10/07 07:34:11;;;;;;;8.52;4.18;;;;;;;16.47;71.87;99183.31;7388948;19;20018;-73
2022/10/07 07:36:45;;;;;;;10.35;4.82;;;;;;;16.40;72.21;99182.34;7388078;19;20042;-72
2022/10/07 07:39:14;;;;;;;5.53;3.78;;;;;;;16.51;71.44;99189.13;7389511;19;20031;-72
2022/10/07 07:41:46;;;;;;;9.80;3.80;;;;;;;16.60;70.94;99180.09;7384386;19;20362;-72
2022/10/07 07:44:16;;;;;;;8.80;4.30;;;;;;;16.53;71.53;99185.28;7390400;19;20702;-72
2022/10/07 07:46:50;;;;;;;7.25;4.15;;;;;;;16.67;71.00;99178.38;7389085;19;20386;-73
2022/10/07 07:49:20;;;;;;;6.72;3.67;;;;;;;16.81;70.33;99176.84;7387620;19;20035;-72
2022/10/07 07:51:47;;;;;;;8.98;3.85;;;;;;;16.81;71.11;99174.16;7387852;19;20018;-73
2022/10/07 07:54:27;;;;;;;6.20;3.78;;;;;;;16.80;69.81;99181.34;7390107;19;20013;-72
2022/10/07 07:56:55;;;;;;;12.93;4.30;;;;;;;16.88;70.36;99180.47;7387051;19;20619;-72
2022/10/07 07:59:24;;;;;;;8.25;3.42;;;;;;;16.97;70.77;99179.41;7387487;19;20014;-73
2022/10/07 08:01:53;;;;;;;11.05;4.53;;;;;;;17.06;70.69;99172.16;7387391;19;20023;-72
2022/10/07 08:04:20;;;;;;;7.00;3.95;;;;;;;17.16;70.99;99174.59;7389958;19;20046;-72
2022/10/07 08:06:47;;;;;;;8.02;4.05;;;;;;;17.31;70.74;99167.47;7387417;19;20018;-73
2022/10/07 08:09:15;;;;;;;6.78;4.35;;;;;;;17.37;70.43;99169.41;7386700;19;20017;-72
2022/10/07 08:11:44;;;;;;;13.40;8.63;;;;;;;17.27;69.38;99166.13;7384919;19;20107;-73
2022/10/07 08:14:14;;;;;;;16.08;7.00;;;;;;;17.36;69.35;99158.91;7387732;19;20013;-72
2022/10/07 08:16:46;;;;;;;8.48;5.45;;;;;;;17.43;70.13;99160.69;7387186;19;20021;-73
2022/10/07 08:19:12;;;;;;;11.13;4.32;;;;;;;17.47;69.68;99159.28;7390539;19;20011;-73
2022/10/07 08:21:39;;;;;;;7.75;4.57;;;;;;;17.55;69.34;99158.38;7383115;19;20044;-72
2022/10/07 08:24:11;;;;;;;7.97;4.82;;;;;;;17.57;68.80;99163.56;7387254;19;20014;-73
2022/10/07 08:26:38;;;;;;;14.80;5.13;;;;;;;17.55;68.16;99159.22;7387948;19;20026;-72
2022/10/07 08:29:08;;;;;;;7.60;4.65;;;;;;;17.69;68.78;99156.75;7387935;19;20376;-72
2022/10/07 08:31:34;;;;;;;11.00;4.93;;;;;;;17.84;68.66;99154.13;7385579;19;20010;-72
2022/10/07 08:34:02;;;;;;;10.75;6.70;;;;;;;17.93;68.38;99153.88;7388239;19;20046;-73
2022/10/07 08:36:33;;;;;;;12.23;7.32;;;;;;;18.00;67.94;99143.25;7389606;19;20014;-73
2022/10/07 08:39:00;;;;;;;10.80;6.28;;;;;;;17.99;68.10;99149.63;7387799;19;20451;-73
2022/10/07 08:41:38;;;;;;;10.68;4.90;;;;;;;18.06;67.08;99144.34;7386554;19;20019;-73
2022/10/07 08:44:16;;;;;;;11.35;4.57;;;;;;;18.03;66.83;99150.06;7390421;19;20025;-73
2022/10/07 08:46:50;;;;;;;10.35;4.40;;;;;;;18.24;67.00;99134.06;7387699;19;20037;-72
2022/10/07 08:49:41;;;;;;;9.48;4.60;;;;;;;18.21;67.06;99134.47;7386244;19;20021;-72
2022/10/07 08:52:16;;;;;;;8.63;3.72;;;;;;;18.09;66.28;99134.13;7387971;19;20015;-72
2022/10/07 08:54:43;;;;;;;15.18;3.80;;;;;;;18.05;66.32;99137.34;7389698;19;20006;-72
2022/10/07 08:57:21;;;;;;;12.55;3.70;;;;;;;18.03;66.84;99132.16;7385780;19;20018;-72
2022/10/07 08:59:52;;;;;;;7.35;3.42;;;;;;;18.04;66.74;99127.66;7385793;19;20026;-72
2022/10/07 09:03:16;;;;;;;5.70;3.47;;;;;;;18.13;66.04;99122.00;7388385;19;20019;-72
2022/10/07 09:05:50;;;;;;;8.13;3.15;;;;;;;18.20;65.86;99120.25;7381187;19;20018;-73
2022/10/07 09:08:26;;;;;;;7.78;3.25;;;;;;;18.21;66.50;99123.75;7384043;19;20014;-73
2022/10/07 09:10:54;;;;;;;6.50;3.55;;;;;;;18.26;66.26;99113.31;7384492;19;20057;-72
2022/10/07 09:13:27;;;;;;;4.18;2.83;;;;;;;18.38;65.67;99119.84;7386744;19;20042;-73
2022/10/07 09:16:20;;;;;;;7.63;3.13;;;;;;;18.50;65.63;99120.19;7387081;19;20015;-73
2022/10/07 09:18:52;;;;;;;7.88;3.42;;;;;;;18.55;65.25;99112.41;7383968;19;20022;-73
2022/10/07 09:21:22;;;;;;;7.18;3.85;;;;;;;18.54;65.27;99115.28;7383584;19;20023;-72
2022/10/07 09:23:56;;;;;;;11.05;3.45;;;;;;;18.47;65.37;99106.34;7386070;19;20510;-73
2022/10/07 09:26:25;;;;;;;7.70;3.22;;;;;;;18.65;65.43;99115.63;7383818;19;20541;-73
2022/10/07 09:28:51;;;;;;;9.13;3.13;;;;;;;18.74;64.54;99102.91;7386166;19;20014;-72
2022/10/07 09:31:19;;;;;;;9.40;3.50;;;;;;;18.82;65.30;99104.69;7385268;19;20038;-72
2022/10/07 09:33:49;;;;;;;11.02;3.80;;;;;;;18.81;65.94;99108.41;7387298;19;20453;-73
2022/10/07 09:36:17;;;;;;;10.43;3.85;;;;;;;18.61;64.78;99100.09;7385356;19;20485;-72
2022/10/07 09:38:48;;;;;;;9.55;3.53;;;;;;;18.77;64.18;99086.50;7382258;19;20018;-73
2022/10/07 09:41:34;;;;;;;7.25;3.50;;;;;;;18.65;64.04;99091.50;7385545;19;20026;-72
2022/10/07 09:44:05;;;;;;;7.88;3.30;;;;;;;18.61;64.21;99094.75;7386416;19;20082;-72
2022/10/07 09:46:45;;;;;;;7.53;3.10;;;;;;;18.58;64.76;99092.44;7384415;19;20186;-72
2022/10/07 09:49:27;;;;;;;10.23;3.50;;;;;;;18.70;64.76;99090.09;7385720;19;20015;-72
2022/10/07 09:52:01;;;;;;;7.82;3.45;;;;;;;18.78;65.73;99087.34;7385529;19;20031;-72
2022/10/07 09:54:31;;;;;;;7.38;3.72;;;;;;;18.79;65.27;99083.63;7386939;19;20014;-73
2022/10/07 09:56:59;;;;;;;8.38;3.92;;;;;;;18.81;64.59;99085.09;7386682;19;20018;-72
2022/10/07 09:59:28;;;;;;;10.38;3.58;;;;;;;18.87;64.69;99086.16;7383840;19;20031;-72
2022/10/07 10:02:14;;;;;;;9.73;3.45;;;;;;;18.81;64.57;99082.41;7387324;19;20377;-73
2022/10/07 10:04:49;;;;;;;6.15;3.58;;;;;;;18.80;64.17;99079.91;7386283;19;20018;-72
2022/10/07 10:07:16;;;;;;;12.25;3.65;;;;;;;18.91;64.00;99073.22;7385646;19;20018;-73
2022/10/07 10:09:51;;;;;;;5.28;3.85;;;;;;;18.90;64.37;99079.59;7386260;19;20014;-73
2022/10/07 10:12:19;;;;;;;11.18;4.65;;;;;;;18.77;64.72;99078.47;7383590;19;20011;-72
2022/10/07 10:14:59;;;;;;;8.55;4.10;;;;;;;18.75;63.89;99075.13;7387010;19;20022;-72
2022/10/07 10:17:33;;;;;;;10.57;4.47;;;;;;;18.91;65.29;99078.59;7388209;19;20605;-73
2022/10/07 10:20:22;;;;;;;6.35;3.45;;;;;;;18.95;64.83;99064.59;7385715;19;20597;-72
2022/10/07 10:22:50;;;;;;;9.45;4.35;;;;;;;19.04;64.50;99068.81;7385884;19;20045;-73
2022/10/07 10:28:37;;;;;;;8.30;4.30;;;;;;;18.97;64.15;99059.03;7382009;19;20085;-72
2022/10/07 10:31:17;;;;;;;9.07;4.90;;;;;;;18.98;64.22;99060.69;7385255;19;20746;-73
2022/10/07 10:33:53;;;;;;;10.48;5.60;;;;;;;19.03;63.59;99053.72;7385064;19;20022;-72
2022/10/07 10:36:21;;;;;;;7.53;5.22;;;;;;;19.08;64.27;99058.50;7381803;19;20014;-73
2022/10/07 10:39:03;;;;;;;10.23;5.50;;;;;;;19.15;63.69;99043.31;7383709;19;20383;-72
2022/10/07 10:41:44;;;;;;;6.20;4.72;;;;;;;19.05;64.41;99043.63;7390632;19;20010;-73
2022/10/07 10:44:31;;;;;;;7.05;4.40;;;;;;;19.13;63.78;99047.22;7393077;19;20011;-73
2022/10/07 10:47:20;;;;;;;7.68;5.18;;;;;;;19.16;64.27;99033.41;7392993;19;20031;-73
2022/10/07 10:50:20;;;;;;;7.95;5.07;;;;;;;19.28;64.44;99035.34;7392360;19;20018;-73
2022/10/07 10:53:07;;;;;;;8.10;5.85;;;;;;;19.41;63.24;99029.25;7393158;19;20035;-74
2022/10/07 10:56:07;;;;;;;6.28;5.38;;;;;;;19.57;64.66;99019.25;7389245;19;20112;-73
2022/10/07 10:58:51;;;;;;;9.68;5.50;;;;;;;19.53;63.32;99016.94;7391177;19;20646;-73
2022/10/07 11:01:31;;;;;;;9.25;5.82;;;;;;;19.48;63.88;99018.56;7389273;19;20018;-74
2022/10/07 11:04:07;;;;;;;8.07;5.85;;;;;;;19.52;61.92;99009.91;7390534;19;20458;-74
2022/10/07 11:06:36;;;;;;;10.45;6.57;;;;;;;19.43;63.12;99002.22;7391405;19;20430;-74
2022/10/07 11:09:04;;;;;;;10.30;6.97;;;;;;;19.52;63.08;99001.88;7390692;19;20418;-74
2022/10/07 11:11:33;;;;;;;8.38;5.80;;;;;;;19.61;63.71;99001.69;7386471;19;20018;-74
2022/10/07 11:14:04;;;;;;;13.63;6.80;;;;;;;19.33;62.49;99007.94;7391929;19;20532;-74
2022/10/07 11:16:38;;;;;;;9.35;6.80;;;;;;;19.29;62.97;99002.13;7390851;19;20026;-74
2022/10/07 11:19:08;;;;;;;8.27;5.72;;;;;;;19.53;63.36;99000.00;7385953;19;20034;-74
2022/10/07 11:21:47;;;;;;;12.50;6.90;;;;;;;19.43;63.76;98996.84;7389449;19;20059;-74
2022/10/07 11:24:18;;;;;;;10.48;7.32;;;;;;;19.41;64.24;98990.88;7390571;19;20117;-74
2022/10/07 11:26:55;;;;;;;11.15;7.25;;;;;;;19.34;63.76;98992.69;7389086;19;20014;-74
2022/10/07 11:29:25;;;;;;;11.82;7.30;;;;;;;19.37;63.64;98982.38;7388054;19;20493;-74
2022/10/07 11:32:23;;;;;;;10.55;6.07;;;;;;;19.32;63.00;98974.09;7388122;19;20327;-74
2022/10/07 11:35:02;;;;;;;12.25;7.97;;;;;;;19.40;63.06;98979.28;7386681;19;20474;-74
2022/10/07 11:38:00;;;;;;;12.57;6.95;;;;;;;19.38;63.22;98967.94;7388786;19;20022;-74
2022/10/07 11:40:29;;;;;;;11.65;6.05;;;;;;;19.41;63.68;98962.19;7387344;19;20015;-74
2022/10/07 11:43:05;;;;;;;9.90;6.25;;;;;;;19.49;63.15;98961.19;7392042;19;20020;-74
2022/10/07 11:45:41;;;;;;;13.68;8.40;;;;;;;19.35;62.88;98962.13;7386584;19;20018;-74
2022/10/07 11:48:12;;;;;;;14.93;8.30;;;;;;;19.28;62.60;98964.78;7390784;19;20007;-74
2022/10/07 11:51:39;;;;;;;10.45;6.32;;;;;;;19.52;62.59;98950.06;7385617;19;20469;-74
2022/10/07 11:54:15;;;;;;;13.53;6.67;;;;;;;19.48;63.25;98944.25;7384878;19;20050;-74
2022/10/07 11:56:52;;;;;;;12.13;7.40;;;;;;;19.47;63.09;98944.44;7387694;19;20295;-74
2022/10/07 11:59:36;;;;;;;13.60;7.43;;;;;;;19.52;63.27;98942.81;7389465;19;20537;-74